Tropical Cyclones
[Index]
Main Index Home Page Stock Weather Photos Extreme Storms Discussion Storm News and Storm Chasing Reports Tropical Cyclones / Hurricanes / Typhoons Weather Data and Links Wild Fires / Bushfires Weather Observation Techniques Weather Picture Catalogue Tornado Pictures and Reports Stock Video Footage and DVDs for sale
Season 2006-2007 Tropical Cyclone ARTHUR Track Map
Season 2006-2007 Summaries: [BoM-AU] [JTWC-AU] [JTWC-SIO] [JTWC-SPAC] [JTWC-SH]
<<- Previous TC | JTWC 2006-2007 Season | Next TC ->>

click for intensity scale information  Lat/long Grid: Show Hide

 Date Labels: Show Hide

Joint Typhoon Warning Centre Cyclone Data

Name: ARTHUR

21 Jan 2007 06:00 UTC to 27 Jan 2007 06:00 UTC

    date/time    lat    long     hPa   cat  kts
2007-01-21 06   11.9   176.9W   1004         20          
2007-01-21 12   12.0   176.6W   1004         20          
2007-01-21 18   12.1   176.3W   1000         30          
2007-01-22 00   12.2   176.1W   1000         30          
2007-01-22 06   12.3   175.9W   1000         30          
2007-01-22 12   12.3   175.6W   1000         30          
2007-01-22 18   12.3   175.3W   1000         30          
2007-01-23 00   12.3   174.9W   1002         25          
2007-01-23 06   12.4   174.1W   1002         25          
2007-01-23 12   12.8   173.1W   1002         25          
2007-01-23 18   13.7   171.9W   1002         25          
2007-01-24 00   14.4   170.0W   1002         25          
2007-01-24 06   14.5   167.5W   1000         30          
2007-01-24 12   14.7   165.0W    984    2    55          
2007-01-24 12   14.7   165.0W    984    2    55          
2007-01-24 18   15.1   162.8W    976    2    65          
2007-01-24 18   15.1   162.8W    976    2    65          
2007-01-25 00   15.6   160.7W    974    2    65          
2007-01-25 00   15.6   160.7W    974    2    65          
2007-01-25 06   16.4   158.8W    980    2    60          
2007-01-25 06   16.4   158.8W    980    2    60          
2007-01-25 12   17.0   156.8W    984    2    55          
2007-01-25 12   17.0   156.8W    984    2    55          
2007-01-25 18   18.1   155.0W    991    1    45          
2007-01-26 00   19.6   153.8W    991    1    45          
2007-01-26 06   21.0   152.4W    984    2    55          
2007-01-26 06   21.0   152.4W    984    2    55          
2007-01-26 12   22.7   151.0W    989    1    45          
2007-01-26 18   24.4   149.4W    991    1    45          
2007-01-27 00   26.4   148.5W    993    1    40          
2007-01-27 06   28.8   146.6W    991    1    45          
Winds are 1-min average.

Tropical cyclone tracks developed by Michael Bath using data from the Joint Typhoon Warning Centre Best Tracks and Google Maps.


[Australian Severe Weather index] [Copyright Notice] [Email Contacts] [Search This Site] [Privacy Policy]
Document: tropical_cyclone_arthur.htm Updated: 28 June 2017